Gardiner, Maine
Current Conditions -  °F | °C
As of 7:53 PM on Thursday 18 Dec 2014 (Local Time) from KAUG Reporting Station
Few Clouds Few Clouds  
Wind Chill: 24°   Ceiling: Unl
Heat Index: 32°   Visibility: 10mi
Dew Point: 23°   Wind: 9mph
Humidity: 69%   Direction: 300°WNW
Pressure: 29.76"   Gusts: 20mph
Location:  44.23°N, 69.77°W
Report Text: KAUG 190053Z AUTO 30008G17KT 10SM FEW043 00/M05 A2976 RMK AO2 SLP080 T00001050
Loading
Personal Weather Stations






























Interactive Weather Map New forecast layout! Learn more

10-Day Weather Forecast

Advertisements
Track Severe Weather on mobile